SYR112 DAAG-OSDI
Flight info
| Callsign | SYR112 |
|---|---|
| Flight time | 3h 32m |
| Altitude | 37000 |
| Route | BABOR1B BABOR UZ888 DIMAO UL874 OMENI DCT NEVNA DCT GZO DCT AGARI DCT EVIRA DCT BINKO DCT TIPAC DCT DEMAG UM978 TOSKA M978 LCA M601 BALMA UR655 LEBOR |
| Aircraft | A333/H-SDE3GHIJ2J3J5M1RVWXY/LB2D1 |
Departure
| Time | 2026-04-22 13:03 |
|---|---|
| Airport | Houari Boumediene Airport (DAAG) |
Arrival
| Time | 2026-04-22 16:36 |
|---|---|
| Airport | Damascus International Airport (OSDI) |
| Time | Latitude | Longitude | Altitude | Speed | Heading |
|---|---|---|---|---|---|
| 2026-04-22 12:44 | 36.69609 | 3.20115 | 73 ft | 0 kts | 90° |
| 2026-04-22 12:51 | 36.69609 | 3.20110 | 73 ft | 3 kts | 90° |
| 2026-04-22 12:52 | 36.69609 | 3.20077 | 69 ft | 4 kts | 90° |
| 2026-04-22 12:52 | 36.69608 | 3.20043 | 66 ft | 4 kts | 90° |
| 2026-04-22 12:52 | 36.69608 | 3.20014 | 63 ft | 4 kts | 99° |
| 2026-04-22 12:52 | 36.69618 | 3.19989 | 63 ft | 4 kts | 159° |
| 2026-04-22 12:53 | 36.69643 | 3.19986 | 63 ft | 4 kts | 186° |
| 2026-04-22 12:53 | 36.69664 | 3.19989 | 63 ft | 0 kts | 181° |
| 2026-04-22 12:55 | 36.69662 | 3.19989 | 63 ft | 1 kts | 181° |
| 2026-04-22 12:55 | 36.69649 | 3.19988 | 63 ft | 3 kts | 181° |
| 2026-04-22 12:56 | 36.69621 | 3.19987 | 63 ft | 5 kts | 182° |
| 2026-04-22 12:56 | 36.69585 | 3.19986 | 63 ft | 6 kts | 182° |
| 2026-04-22 12:56 | 36.69539 | 3.19984 | 67 ft | 7 kts | 182° |
| 2026-04-22 12:56 | 36.69486 | 3.19986 | 71 ft | 8 kts | 167° |
| 2026-04-22 12:57 | 36.69453 | 3.20034 | 65 ft | 7 kts | 102° |
| 2026-04-22 12:57 | 36.69452 | 3.20099 | 72 ft | 8 kts | 91° |
| 2026-04-22 12:57 | 36.69450 | 3.20173 | 73 ft | 9 kts | 92° |
| 2026-04-22 12:57 | 36.69448 | 3.20258 | 66 ft | 10 kts | 92° |
| 2026-04-22 12:58 | 36.69446 | 3.20352 | 67 ft | 11 kts | 91° |
| 2026-04-22 12:58 | 36.69444 | 3.20455 | 72 ft | 12 kts | 91° |
| 2026-04-22 12:58 | 36.69441 | 3.20564 | 69 ft | 13 kts | 92° |
| 2026-04-22 12:58 | 36.69438 | 3.20681 | 67 ft | 14 kts | 91° |
| 2026-04-22 12:59 | 36.69435 | 3.20806 | 64 ft | 15 kts | 92° |
| 2026-04-22 12:59 | 36.69374 | 3.20887 | 64 ft | 14 kts | 161° |
| 2026-04-22 12:59 | 36.69281 | 3.20925 | 64 ft | 14 kts | 162° |
| 2026-04-22 12:59 | 36.69219 | 3.20951 | 65 ft | 0 kts | 161° |
| 2026-04-22 13:01 | 36.69210 | 3.20955 | 76 ft | 4 kts | 161° |
| 2026-04-22 13:01 | 36.69187 | 3.20961 | 73 ft | 4 kts | 171° |
| 2026-04-22 13:01 | 36.69133 | 3.20955 | 84 ft | 7 kts | 201° |
| 2026-04-22 13:02 | 36.69114 | 3.20911 | 84 ft | 5 kts | 269° |
| 2026-04-22 13:02 | 36.69116 | 3.20861 | 82 ft | 6 kts | 272° |
| 2026-04-22 13:02 | 36.69121 | 3.20665 | 81 ft | 51 kts | 271° |
| 2026-04-22 13:02 | 36.69137 | 3.19976 | 73 ft | 106 kts | 271° |
| 2026-04-22 13:03 | 36.69163 | 3.18852 | 84 ft | 150 kts | 270° |
| 2026-04-22 13:03 | 36.69190 | 3.17490 | 506 ft | 157 kts | 275° |
| 2026-04-22 13:03 | 36.69201 | 3.16146 | 1101 ft | 158 kts | 271° |
| 2026-04-22 13:03 | 36.69199 | 3.14721 | 1519 ft | 170 kts | 272° |
| 2026-04-22 13:04 | 36.69189 | 3.13200 | 1944 ft | 182 kts | 273° |
| 2026-04-22 13:04 | 36.69221 | 3.11531 | 2164 ft | 204 kts | 274° |
| 2026-04-22 13:04 | 36.69261 | 3.09681 | 2419 ft | 225 kts | 272° |
| 2026-04-22 13:04 | 36.69178 | 3.07646 | 2733 ft | 243 kts | 264° |
| 2026-04-22 13:05 | 36.68759 | 3.05542 | 3133 ft | 259 kts | 252° |
| 2026-04-22 13:05 | 36.67933 | 3.03546 | 3807 ft | 266 kts | 237° |
| 2026-04-22 13:05 | 36.66722 | 3.01791 | 4671 ft | 269 kts | 224° |
| 2026-04-22 13:05 | 36.65200 | 3.00424 | 5510 ft | 272 kts | 210° |
| 2026-04-22 13:06 | 36.63423 | 2.99532 | 6282 ft | 279 kts | 197° |
| 2026-04-22 13:06 | 36.61487 | 2.99207 | 7051 ft | 284 kts | 181° |
| 2026-04-22 13:06 | 36.59506 | 2.99494 | 7816 ft | 291 kts | 167° |
| 2026-04-22 13:06 | 36.57603 | 3.00423 | 8609 ft | 297 kts | 150° |
| 2026-04-22 13:07 | 36.55937 | 3.01950 | 9463 ft | 300 kts | 135° |
| 2026-04-22 13:07 | 36.54635 | 3.03982 | 10256 ft | 303 kts | 120° |
| 2026-04-22 13:07 | 36.53772 | 3.06439 | 10637 ft | 320 kts | 104° |
| 2026-04-22 13:07 | 36.53494 | 3.09262 | 10925 ft | 339 kts | 86° |
| 2026-04-22 13:08 | 36.53782 | 3.12246 | 11206 ft | 357 kts | 82° |
| 2026-04-22 13:08 | 36.53772 | 3.15373 | 11541 ft | 374 kts | 92° |
| 2026-04-22 13:08 | 36.53653 | 3.18639 | 12115 ft | 381 kts | 92° |
| 2026-04-22 13:08 | 36.53530 | 3.21954 | 12725 ft | 387 kts | 91° |
| 2026-04-22 13:09 | 36.53422 | 3.25319 | 13332 ft | 391 kts | 91° |
| 2026-04-22 13:09 | 36.53329 | 3.28718 | 13977 ft | 395 kts | 91° |
| 2026-04-22 13:09 | 36.53245 | 3.32150 | 14535 ft | 398 kts | 91° |
| 2026-04-22 13:09 | 36.53164 | 3.35626 | 15089 ft | 403 kts | 91° |
| 2026-04-22 13:10 | 36.53084 | 3.39112 | 15697 ft | 405 kts | 91° |
| 2026-04-22 13:10 | 36.53004 | 3.42640 | 16252 ft | 409 kts | 91° |
| 2026-04-22 13:10 | 36.52922 | 3.46192 | 16824 ft | 412 kts | 91° |
| 2026-04-22 13:10 | 36.52840 | 3.49770 | 17391 ft | 415 kts | 91° |
| 2026-04-22 13:11 | 36.52757 | 3.53375 | 17948 ft | 419 kts | 91° |
| 2026-04-22 13:11 | 36.52672 | 3.56966 | 18456 ft | 422 kts | 91° |
| 2026-04-22 13:11 | 36.52585 | 3.60641 | 18919 ft | 426 kts | 91° |
| 2026-04-22 13:11 | 36.52496 | 3.64336 | 19379 ft | 429 kts | 91° |
| 2026-04-22 13:12 | 36.52405 | 3.68072 | 19843 ft | 432 kts | 91° |
| 2026-04-22 13:12 | 36.52313 | 3.71825 | 20299 ft | 436 kts | 91° |
| 2026-04-22 13:12 | 36.52219 | 3.75601 | 20742 ft | 439 kts | 91° |
| 2026-04-22 13:12 | 36.52122 | 3.79417 | 21187 ft | 442 kts | 91° |
| 2026-04-22 13:13 | 36.52025 | 3.83206 | 21642 ft | 444 kts | 91° |
| 2026-04-22 13:13 | 36.51925 | 3.87060 | 22119 ft | 446 kts | 91° |
| 2026-04-22 13:13 | 36.51823 | 3.90936 | 22540 ft | 450 kts | 91° |
| 2026-04-22 13:13 | 36.51720 | 3.94833 | 22948 ft | 453 kts | 91° |
| 2026-04-22 13:14 | 36.51614 | 3.98761 | 23366 ft | 456 kts | 91° |
| 2026-04-22 13:14 | 36.51506 | 4.02728 | 23737 ft | 459 kts | 91° |
| 2026-04-22 13:14 | 36.51397 | 4.06711 | 24094 ft | 462 kts | 91° |
| 2026-04-22 13:14 | 36.51285 | 4.10710 | 24461 ft | 464 kts | 91° |
| 2026-04-22 13:15 | 36.51172 | 4.14722 | 24814 ft | 466 kts | 91° |
| 2026-04-22 13:15 | 36.51058 | 4.18699 | 25155 ft | 468 kts | 92° |
| 2026-04-22 13:15 | 36.50941 | 4.22751 | 25504 ft | 470 kts | 92° |
| 2026-04-22 13:15 | 36.50822 | 4.26818 | 25892 ft | 471 kts | 92° |
| 2026-04-22 13:16 | 36.50701 | 4.30898 | 26224 ft | 473 kts | 92° |
| 2026-04-22 13:16 | 36.50578 | 4.35007 | 26536 ft | 476 kts | 92° |
| 2026-04-22 13:16 | 36.50454 | 4.39124 | 26900 ft | 477 kts | 92° |
| 2026-04-22 13:16 | 36.50327 | 4.43265 | 27195 ft | 480 kts | 92° |
| 2026-04-22 13:17 | 36.50200 | 4.47368 | 27520 ft | 482 kts | 92° |
| 2026-04-22 13:17 | 36.50069 | 4.51540 | 27831 ft | 484 kts | 92° |
| 2026-04-22 13:17 | 36.49937 | 4.55722 | 28130 ft | 486 kts | 92° |
| 2026-04-22 13:17 | 36.49803 | 4.59923 | 28446 ft | 487 kts | 92° |
| 2026-04-22 13:18 | 36.49666 | 4.64152 | 28737 ft | 490 kts | 92° |
| 2026-04-22 13:18 | 36.49528 | 4.68383 | 29031 ft | 492 kts | 92° |
| 2026-04-22 13:18 | 36.49387 | 4.72647 | 29312 ft | 494 kts | 92° |
| 2026-04-22 13:18 | 36.49244 | 4.76917 | 29593 ft | 496 kts | 92° |
| 2026-04-22 13:19 | 36.49099 | 4.81213 | 29876 ft | 498 kts | 92° |
| 2026-04-22 13:19 | 36.48952 | 4.85520 | 30167 ft | 499 kts | 92° |
| 2026-04-22 13:19 | 36.48803 | 4.89823 | 30515 ft | 498 kts | 92° |
| 2026-04-22 13:19 | 36.48654 | 4.94124 | 30858 ft | 497 kts | 92° |
| 2026-04-22 13:20 | 36.48503 | 4.98411 | 31146 ft | 497 kts | 92° |
| 2026-04-22 13:20 | 36.48386 | 5.02721 | 31423 ft | 498 kts | 91° |
| 2026-04-22 13:20 | 36.48324 | 5.06968 | 31749 ft | 497 kts | 91° |
| 2026-04-22 13:20 | 36.48287 | 5.11266 | 32103 ft | 496 kts | 90° |
| 2026-04-22 13:21 | 36.48258 | 5.15543 | 32445 ft | 495 kts | 90° |
| 2026-04-22 13:21 | 36.48227 | 5.19833 | 32775 ft | 495 kts | 90° |
| 2026-04-22 13:21 | 36.48190 | 5.24097 | 33094 ft | 494 kts | 91° |
| 2026-04-22 13:21 | 36.48147 | 5.28372 | 33396 ft | 494 kts | 91° |
| 2026-04-22 13:22 | 36.48099 | 5.32635 | 33699 ft | 493 kts | 91° |
| 2026-04-22 13:22 | 36.48047 | 5.36891 | 34039 ft | 492 kts | 91° |
| 2026-04-22 13:22 | 36.47992 | 5.41140 | 34304 ft | 491 kts | 91° |
| 2026-04-22 13:22 | 36.47935 | 5.45383 | 34546 ft | 491 kts | 91° |
| 2026-04-22 13:23 | 36.47878 | 5.49632 | 34748 ft | 491 kts | 91° |
| 2026-04-22 13:23 | 36.47820 | 5.53828 | 34989 ft | 491 kts | 91° |
| 2026-04-22 13:23 | 36.47761 | 5.58087 | 35211 ft | 491 kts | 91° |
| 2026-04-22 13:23 | 36.47700 | 5.62338 | 35413 ft | 492 kts | 91° |
| 2026-04-22 13:24 | 36.47638 | 5.66587 | 35635 ft | 491 kts | 91° |
| 2026-04-22 13:24 | 36.47574 | 5.70831 | 35852 ft | 491 kts | 91° |
| 2026-04-22 13:24 | 36.47508 | 5.75075 | 36049 ft | 491 kts | 91° |
| 2026-04-22 13:24 | 36.47440 | 5.79337 | 36260 ft | 492 kts | 91° |
| 2026-04-22 13:25 | 36.47373 | 5.83533 | 36442 ft | 492 kts | 91° |
| 2026-04-22 13:25 | 36.47302 | 5.87791 | 36655 ft | 492 kts | 91° |
| 2026-04-22 13:25 | 36.47229 | 5.92043 | 36830 ft | 492 kts | 91° |
| 2026-04-22 13:25 | 36.47155 | 5.96298 | 36973 ft | 493 kts | 91° |
| 2026-04-22 13:26 | 36.47079 | 6.00565 | 36987 ft | 493 kts | 91° |
| 2026-04-22 13:26 | 36.46922 | 6.09064 | 36980 ft | 492 kts | 91° |
| 2026-04-22 13:27 | 36.46760 | 6.17573 | 36980 ft | 492 kts | 92° |
| 2026-04-22 13:27 | 36.46594 | 6.26021 | 36976 ft | 492 kts | 92° |
| 2026-04-22 13:28 | 36.46420 | 6.34517 | 36977 ft | 492 kts | 92° |
| 2026-04-22 13:28 | 36.46240 | 6.43015 | 36973 ft | 492 kts | 92° |
| 2026-04-22 13:29 | 36.46054 | 6.51510 | 36973 ft | 493 kts | 92° |
| 2026-04-22 13:29 | 36.45861 | 6.60042 | 37025 ft | 494 kts | 92° |
| 2026-04-22 13:30 | 36.45662 | 6.68580 | 37022 ft | 494 kts | 92° |
| 2026-04-22 13:30 | 36.45457 | 6.77120 | 37016 ft | 494 kts | 92° |
| 2026-04-22 13:31 | 36.45247 | 6.85653 | 37004 ft | 495 kts | 92° |
| 2026-04-22 13:31 | 36.45029 | 6.94149 | 36986 ft | 495 kts | 92° |
| 2026-04-22 13:32 | 36.44806 | 7.02697 | 36970 ft | 495 kts | 92° |
| 2026-04-22 13:32 | 36.44576 | 7.11252 | 36968 ft | 495 kts | 92° |
| 2026-04-22 13:33 | 36.44340 | 7.19802 | 36969 ft | 495 kts | 92° |
| 2026-04-22 13:33 | 36.44098 | 7.28357 | 36969 ft | 495 kts | 92° |
| 2026-04-22 13:34 | 36.43850 | 7.36917 | 36964 ft | 495 kts | 92° |
| 2026-04-22 13:34 | 36.43598 | 7.45410 | 36963 ft | 495 kts | 92° |
| 2026-04-22 13:35 | 36.43337 | 7.53969 | 36965 ft | 495 kts | 92° |
| 2026-04-22 13:35 | 36.43070 | 7.62529 | 36964 ft | 496 kts | 92° |
| 2026-04-22 13:36 | 36.42843 | 7.69650 | 36961 ft | 497 kts | 92° |
| 2026-04-22 13:36 | 36.42565 | 7.78228 | 36963 ft | 497 kts | 92° |
| 2026-04-22 13:37 | 36.42280 | 7.86817 | 36967 ft | 497 kts | 93° |
| 2026-04-22 13:37 | 36.41941 | 7.96794 | 36960 ft | 497 kts | 93° |
| 2026-04-22 13:38 | 36.41694 | 8.03921 | 36963 ft | 498 kts | 93° |
| 2026-04-22 13:38 | 36.41236 | 8.16828 | 36959 ft | 499 kts | 93° |
| 2026-04-22 13:39 | 36.40922 | 8.25432 | 36952 ft | 499 kts | 93° |
| 2026-04-22 13:39 | 36.40598 | 8.34039 | 36950 ft | 498 kts | 94° |
| 2026-04-22 13:40 | 36.39592 | 8.42493 | 36944 ft | 498 kts | 101° |
| 2026-04-22 13:40 | 36.38291 | 8.50970 | 36940 ft | 499 kts | 102° |
| 2026-04-22 13:41 | 36.36929 | 8.59429 | 36938 ft | 499 kts | 102° |
| 2026-04-22 13:41 | 36.35576 | 8.67827 | 36936 ft | 499 kts | 102° |
| 2026-04-22 13:42 | 36.34222 | 8.76269 | 36937 ft | 499 kts | 102° |
| 2026-04-22 13:42 | 36.32865 | 8.84713 | 36937 ft | 499 kts | 102° |
| 2026-04-22 13:43 | 36.31503 | 8.93155 | 36936 ft | 499 kts | 102° |
| 2026-04-22 13:43 | 36.30135 | 9.01593 | 36939 ft | 499 kts | 102° |
| 2026-04-22 13:44 | 36.28769 | 9.09971 | 36939 ft | 499 kts | 102° |
| 2026-04-22 13:44 | 36.27385 | 9.18423 | 36939 ft | 500 kts | 102° |
| 2026-04-22 13:45 | 36.25996 | 9.26873 | 36938 ft | 500 kts | 102° |
| 2026-04-22 13:45 | 36.24681 | 9.35349 | 36939 ft | 501 kts | 100° |
| 2026-04-22 13:46 | 36.23670 | 9.43833 | 36936 ft | 501 kts | 98° |
| 2026-04-22 13:46 | 36.22716 | 9.52382 | 36935 ft | 501 kts | 99° |
| 2026-04-22 13:47 | 36.21729 | 9.60930 | 36939 ft | 500 kts | 99° |
| 2026-04-22 13:47 | 36.20714 | 9.69466 | 36938 ft | 500 kts | 99° |
| 2026-04-22 13:48 | 36.19686 | 9.77988 | 36938 ft | 500 kts | 99° |
| 2026-04-22 13:48 | 36.18657 | 9.86459 | 36942 ft | 501 kts | 99° |
| 2026-04-22 13:49 | 36.17611 | 9.95035 | 36942 ft | 504 kts | 99° |
| 2026-04-22 13:49 | 36.16559 | 10.03610 | 36941 ft | 504 kts | 99° |
| 2026-04-22 13:50 | 36.15471 | 10.12173 | 36943 ft | 504 kts | 103° |
| 2026-04-22 13:50 | 36.13577 | 10.20441 | 36949 ft | 502 kts | 109° |
| 2026-04-22 13:51 | 36.11412 | 10.28679 | 36950 ft | 503 kts | 110° |
| 2026-04-22 13:51 | 36.09190 | 10.36899 | 36966 ft | 503 kts | 110° |
| 2026-04-22 13:52 | 36.07509 | 10.45286 | 36966 ft | 504 kts | 96° |
| 2026-04-22 13:52 | 36.07040 | 10.53882 | 36966 ft | 505 kts | 92° |
| 2026-04-22 13:53 | 36.06805 | 10.62565 | 36963 ft | 506 kts | 92° |
| 2026-04-22 13:53 | 36.06595 | 10.71281 | 36958 ft | 507 kts | 92° |
| 2026-04-22 13:54 | 36.06356 | 10.80004 | 36953 ft | 507 kts | 92° |
| 2026-04-22 13:54 | 36.06095 | 10.88681 | 36950 ft | 507 kts | 92° |
| 2026-04-22 13:55 | 36.05821 | 10.97400 | 36952 ft | 507 kts | 92° |
| 2026-04-22 13:55 | 36.05541 | 11.06129 | 36952 ft | 508 kts | 92° |
| 2026-04-22 13:56 | 36.05256 | 11.14861 | 36949 ft | 508 kts | 92° |
| 2026-04-22 13:56 | 36.04965 | 11.23579 | 36949 ft | 508 kts | 92° |
| 2026-04-22 13:57 | 36.04669 | 11.32268 | 36948 ft | 508 kts | 92° |
| 2026-04-22 13:57 | 36.04370 | 11.40992 | 36949 ft | 508 kts | 92° |
| 2026-04-22 13:58 | 36.04073 | 11.49733 | 36949 ft | 509 kts | 92° |
| 2026-04-22 13:58 | 36.04040 | 11.58415 | 36950 ft | 509 kts | 89° |
| 2026-04-22 13:59 | 36.04165 | 11.67155 | 36947 ft | 509 kts | 89° |
| 2026-04-22 13:59 | 36.04278 | 11.75911 | 36944 ft | 510 kts | 89° |
| 2026-04-22 14:00 | 36.04356 | 11.84686 | 36946 ft | 510 kts | 89° |
| 2026-04-22 14:00 | 36.04414 | 11.93414 | 36946 ft | 510 kts | 89° |
| 2026-04-22 14:01 | 36.04464 | 12.02190 | 36946 ft | 510 kts | 89° |
| 2026-04-22 14:01 | 36.04508 | 12.10960 | 36944 ft | 511 kts | 89° |
| 2026-04-22 14:02 | 36.04547 | 12.19762 | 36944 ft | 511 kts | 89° |
| 2026-04-22 14:02 | 36.04579 | 12.28507 | 36944 ft | 511 kts | 89° |
| 2026-04-22 14:03 | 36.04606 | 12.37302 | 36944 ft | 511 kts | 89° |
| 2026-04-22 14:03 | 36.04626 | 12.46098 | 36944 ft | 512 kts | 89° |
| 2026-04-22 14:04 | 36.04639 | 12.54900 | 36944 ft | 512 kts | 89° |
| 2026-04-22 14:04 | 36.04646 | 12.63706 | 36938 ft | 512 kts | 89° |
| 2026-04-22 14:05 | 36.04647 | 12.72509 | 36941 ft | 512 kts | 90° |
| 2026-04-22 14:06 | 36.04635 | 12.85735 | 36938 ft | 513 kts | 89° |
| 2026-04-22 14:06 | 36.04620 | 12.94502 | 36951 ft | 514 kts | 89° |
| 2026-04-22 14:07 | 36.04598 | 13.03357 | 36944 ft | 516 kts | 89° |
| 2026-04-22 14:07 | 36.04569 | 13.12220 | 36944 ft | 516 kts | 90° |
| 2026-04-22 14:08 | 36.04534 | 13.21083 | 36943 ft | 516 kts | 89° |
| 2026-04-22 14:08 | 36.04495 | 13.29950 | 36944 ft | 516 kts | 89° |
| 2026-04-22 14:09 | 36.04451 | 13.38823 | 36944 ft | 516 kts | 90° |
| 2026-04-22 14:09 | 36.04401 | 13.47698 | 36944 ft | 516 kts | 90° |
| 2026-04-22 14:10 | 36.04344 | 13.56569 | 36940 ft | 516 kts | 89° |
| 2026-04-22 14:10 | 36.04280 | 13.65451 | 36941 ft | 517 kts | 89° |
| 2026-04-22 14:11 | 36.04210 | 13.74280 | 36941 ft | 517 kts | 90° |
| 2026-04-22 14:11 | 36.04134 | 13.83161 | 36944 ft | 517 kts | 90° |
| 2026-04-22 14:12 | 36.04050 | 13.92060 | 36947 ft | 517 kts | 89° |
| 2026-04-22 14:12 | 36.03960 | 14.00956 | 36947 ft | 517 kts | 89° |
| 2026-04-22 14:13 | 36.03863 | 14.09846 | 36947 ft | 517 kts | 90° |
| 2026-04-22 14:13 | 36.03761 | 14.18675 | 36947 ft | 517 kts | 90° |
| 2026-04-22 14:14 | 36.03491 | 14.27569 | 36950 ft | 518 kts | 92° |
| 2026-04-22 14:14 | 36.03049 | 14.36467 | 36950 ft | 519 kts | 92° |
| 2026-04-22 14:15 | 36.02592 | 14.45370 | 36953 ft | 519 kts | 92° |
| 2026-04-22 14:15 | 36.02152 | 14.54261 | 36952 ft | 519 kts | 92° |
| 2026-04-22 14:16 | 36.01716 | 14.63172 | 36954 ft | 519 kts | 92° |
| 2026-04-22 14:16 | 36.01278 | 14.72070 | 36951 ft | 519 kts | 92° |
| 2026-04-22 14:17 | 36.00835 | 14.80904 | 36951 ft | 519 kts | 92° |
| 2026-04-22 14:17 | 36.00382 | 14.89805 | 36953 ft | 519 kts | 92° |
| 2026-04-22 14:18 | 35.99921 | 14.98705 | 36957 ft | 519 kts | 92° |
| 2026-04-22 14:18 | 35.99454 | 15.07617 | 36958 ft | 520 kts | 92° |
| 2026-04-22 14:19 | 35.98979 | 15.16546 | 36957 ft | 520 kts | 92° |
| 2026-04-22 14:19 | 35.98500 | 15.25421 | 36959 ft | 520 kts | 92° |
| 2026-04-22 14:20 | 35.97765 | 15.38810 | 36948 ft | 521 kts | 93° |
| 2026-04-22 14:20 | 35.97267 | 15.47738 | 36954 ft | 521 kts | 93° |
| 2026-04-22 14:21 | 35.96509 | 15.61086 | 36961 ft | 521 kts | 93° |
| 2026-04-22 14:22 | 35.95733 | 15.74502 | 36952 ft | 522 kts | 93° |
| 2026-04-22 14:23 | 35.94942 | 15.87911 | 36952 ft | 522 kts | 93° |
| 2026-04-22 14:23 | 35.94498 | 15.95340 | 36954 ft | 522 kts | 93° |
| 2026-04-22 14:24 | 35.93956 | 16.04280 | 36960 ft | 523 kts | 93° |
| 2026-04-22 14:24 | 35.93408 | 16.13237 | 36955 ft | 523 kts | 93° |
| 2026-04-22 14:25 | 35.92863 | 16.22008 | 36960 ft | 523 kts | 93° |
| 2026-04-22 14:25 | 35.92301 | 16.30969 | 36961 ft | 523 kts | 93° |
| 2026-04-22 14:26 | 35.91732 | 16.39927 | 36960 ft | 523 kts | 93° |
| 2026-04-22 14:26 | 35.91160 | 16.48818 | 36958 ft | 524 kts | 93° |
| 2026-04-22 14:27 | 35.90577 | 16.57792 | 36948 ft | 524 kts | 93° |
| 2026-04-22 14:27 | 35.89988 | 16.66752 | 36954 ft | 524 kts | 93° |
| 2026-04-22 14:28 | 35.89395 | 16.75657 | 36960 ft | 524 kts | 93° |
| 2026-04-22 14:28 | 35.88792 | 16.84617 | 36959 ft | 524 kts | 94° |
| 2026-04-22 14:29 | 35.88183 | 16.93576 | 36954 ft | 524 kts | 94° |
| 2026-04-22 14:29 | 35.87567 | 17.02543 | 36958 ft | 524 kts | 94° |
| 2026-04-22 14:30 | 35.86945 | 17.11521 | 36961 ft | 524 kts | 94° |
| 2026-04-22 14:30 | 35.86317 | 17.20495 | 36962 ft | 525 kts | 94° |
| 2026-04-22 14:31 | 35.85686 | 17.29401 | 36958 ft | 525 kts | 94° |
| 2026-04-22 14:31 | 35.85044 | 17.38372 | 36959 ft | 525 kts | 94° |
| 2026-04-22 14:32 | 35.84396 | 17.47331 | 36961 ft | 525 kts | 94° |
| 2026-04-22 14:32 | 35.83741 | 17.56296 | 36960 ft | 526 kts | 94° |
| 2026-04-22 14:33 | 35.83078 | 17.65279 | 36957 ft | 526 kts | 94° |
| 2026-04-22 14:33 | 35.82409 | 17.74249 | 36958 ft | 525 kts | 94° |
| 2026-04-22 14:34 | 35.81736 | 17.83179 | 36960 ft | 526 kts | 94° |
| 2026-04-22 14:34 | 35.81053 | 17.92156 | 36958 ft | 526 kts | 94° |
| 2026-04-22 14:35 | 35.80364 | 18.01127 | 36961 ft | 526 kts | 94° |
| 2026-04-22 14:35 | 35.79667 | 18.10102 | 36960 ft | 526 kts | 94° |
| 2026-04-22 14:36 | 35.78964 | 18.19076 | 36958 ft | 526 kts | 94° |
| 2026-04-22 14:36 | 35.78259 | 18.28040 | 36957 ft | 526 kts | 94° |
| 2026-04-22 14:37 | 35.77549 | 18.37027 | 36957 ft | 526 kts | 94° |
| 2026-04-22 14:37 | 35.76833 | 18.45996 | 36959 ft | 526 kts | 95° |
| 2026-04-22 14:38 | 35.76113 | 18.54922 | 36959 ft | 527 kts | 95° |
| 2026-04-22 14:38 | 35.75383 | 18.63895 | 36957 ft | 527 kts | 95° |
| 2026-04-22 14:39 | 35.74644 | 18.72885 | 36974 ft | 527 kts | 95° |
| 2026-04-22 14:39 | 35.73900 | 18.81852 | 36960 ft | 525 kts | 95° |
| 2026-04-22 14:40 | 35.72780 | 18.95203 | 36963 ft | 525 kts | 95° |
| 2026-04-22 14:40 | 35.72022 | 19.04146 | 36964 ft | 525 kts | 95° |
| 2026-04-22 14:41 | 35.71257 | 19.13090 | 36962 ft | 525 kts | 95° |
| 2026-04-22 14:41 | 35.70485 | 19.22024 | 36948 ft | 525 kts | 95° |
| 2026-04-22 14:42 | 35.69706 | 19.30967 | 36957 ft | 525 kts | 95° |
| 2026-04-22 14:42 | 35.68921 | 19.39905 | 36955 ft | 525 kts | 95° |
| 2026-04-22 14:43 | 35.68130 | 19.48838 | 36957 ft | 525 kts | 95° |
| 2026-04-22 14:43 | 35.67337 | 19.57717 | 36956 ft | 525 kts | 95° |
| 2026-04-22 14:44 | 35.66532 | 19.66646 | 36953 ft | 525 kts | 95° |
| 2026-04-22 14:44 | 35.65720 | 19.75584 | 36952 ft | 525 kts | 95° |
| 2026-04-22 14:45 | 35.64897 | 19.84510 | 36952 ft | 525 kts | 96° |
| 2026-04-22 14:45 | 35.64049 | 19.93448 | 36948 ft | 526 kts | 96° |
| 2026-04-22 14:46 | 35.63197 | 20.02335 | 36949 ft | 526 kts | 96° |
| 2026-04-22 14:46 | 35.62335 | 20.11260 | 36950 ft | 526 kts | 96° |
| 2026-04-22 14:47 | 35.61467 | 20.20200 | 36944 ft | 526 kts | 96° |
| 2026-04-22 14:47 | 35.60592 | 20.29144 | 36948 ft | 526 kts | 96° |
| 2026-04-22 14:48 | 35.59711 | 20.38074 | 36946 ft | 526 kts | 96° |
| 2026-04-22 14:48 | 35.58827 | 20.46966 | 36950 ft | 526 kts | 96° |
| 2026-04-22 14:49 | 35.57934 | 20.55890 | 36947 ft | 527 kts | 96° |
| 2026-04-22 14:49 | 35.57035 | 20.64800 | 36948 ft | 527 kts | 96° |
| 2026-04-22 14:50 | 35.56127 | 20.73728 | 36945 ft | 527 kts | 96° |
| 2026-04-22 14:50 | 35.55212 | 20.82664 | 36954 ft | 527 kts | 96° |
| 2026-04-22 14:51 | 35.54289 | 20.91610 | 36946 ft | 527 kts | 96° |
| 2026-04-22 14:51 | 35.53361 | 21.00534 | 36945 ft | 527 kts | 96° |
| 2026-04-22 14:52 | 35.52427 | 21.09462 | 36946 ft | 527 kts | 96° |
| 2026-04-22 14:52 | 35.51487 | 21.18391 | 36942 ft | 527 kts | 96° |
| 2026-04-22 14:53 | 35.50551 | 21.27318 | 36946 ft | 527 kts | 96° |
| 2026-04-22 14:53 | 35.49616 | 21.36189 | 36944 ft | 527 kts | 96° |
| 2026-04-22 14:54 | 35.48668 | 21.45112 | 36942 ft | 527 kts | 96° |
| 2026-04-22 14:54 | 35.47711 | 21.54047 | 36944 ft | 527 kts | 97° |
| 2026-04-22 14:55 | 35.46748 | 21.62974 | 36949 ft | 527 kts | 97° |
| 2026-04-22 14:55 | 35.45779 | 21.71899 | 36946 ft | 527 kts | 97° |
| 2026-04-22 14:56 | 35.44803 | 21.80814 | 36940 ft | 527 kts | 97° |
| 2026-04-22 14:56 | 35.43824 | 21.89709 | 36941 ft | 525 kts | 97° |
| 2026-04-22 14:57 | 35.42838 | 21.98594 | 36950 ft | 525 kts | 97° |
| 2026-04-22 14:57 | 35.41848 | 22.07463 | 36943 ft | 525 kts | 97° |
| 2026-04-22 14:58 | 35.41086 | 22.16354 | 36947 ft | 524 kts | 92° |
| 2026-04-22 14:58 | 35.40781 | 22.25231 | 36945 ft | 524 kts | 90° |
| 2026-04-22 14:59 | 35.40584 | 22.34169 | 36950 ft | 524 kts | 90° |
| 2026-04-22 14:59 | 35.40380 | 22.43107 | 36949 ft | 524 kts | 90° |
| 2026-04-22 15:00 | 35.40150 | 22.52031 | 36951 ft | 524 kts | 90° |
| 2026-04-22 15:00 | 35.39905 | 22.60971 | 36950 ft | 524 kts | 90° |
| 2026-04-22 15:01 | 35.39651 | 22.69905 | 36949 ft | 524 kts | 90° |
| 2026-04-22 15:01 | 35.39393 | 22.78796 | 36953 ft | 524 kts | 90° |
| 2026-04-22 15:02 | 35.39127 | 22.87744 | 36952 ft | 524 kts | 91° |
| 2026-04-22 15:02 | 35.38855 | 22.96681 | 36952 ft | 524 kts | 91° |
| 2026-04-22 15:03 | 35.38577 | 23.05600 | 36955 ft | 524 kts | 91° |
| 2026-04-22 15:03 | 35.38294 | 23.14483 | 36956 ft | 524 kts | 91° |
| 2026-04-22 15:04 | 35.38002 | 23.23428 | 36961 ft | 523 kts | 91° |
| 2026-04-22 15:04 | 35.37704 | 23.32340 | 36963 ft | 523 kts | 91° |
| 2026-04-22 15:05 | 35.37402 | 23.41198 | 36955 ft | 523 kts | 91° |
| 2026-04-22 15:05 | 35.37092 | 23.50087 | 36957 ft | 521 kts | 91° |
| 2026-04-22 15:06 | 35.36777 | 23.58944 | 36960 ft | 520 kts | 91° |
| 2026-04-22 15:06 | 35.36456 | 23.67802 | 36960 ft | 520 kts | 91° |
| 2026-04-22 15:07 | 35.36128 | 23.76647 | 36960 ft | 520 kts | 91° |
| 2026-04-22 15:07 | 35.35793 | 23.85493 | 36955 ft | 519 kts | 91° |
| 2026-04-22 15:08 | 35.35453 | 23.94326 | 36950 ft | 519 kts | 91° |
| 2026-04-22 15:08 | 35.35107 | 24.03164 | 36945 ft | 519 kts | 91° |
| 2026-04-22 15:09 | 35.34814 | 24.10514 | 36947 ft | 520 kts | 91° |
| 2026-04-22 15:09 | 35.34396 | 24.20798 | 36947 ft | 520 kts | 91° |
| 2026-04-22 15:10 | 35.34028 | 24.29670 | 36949 ft | 521 kts | 92° |
| 2026-04-22 15:10 | 35.33717 | 24.37043 | 36953 ft | 521 kts | 92° |
| 2026-04-22 15:11 | 35.33338 | 24.45913 | 36958 ft | 521 kts | 92° |
| 2026-04-22 15:11 | 35.32952 | 24.54783 | 36966 ft | 521 kts | 92° |
| 2026-04-22 15:12 | 35.32562 | 24.63591 | 36963 ft | 521 kts | 92° |
| 2026-04-22 15:12 | 35.32163 | 24.72451 | 36981 ft | 521 kts | 92° |
| 2026-04-22 15:13 | 35.31759 | 24.81303 | 36967 ft | 520 kts | 92° |
| 2026-04-22 15:13 | 35.31347 | 24.90166 | 36966 ft | 520 kts | 92° |
| 2026-04-22 15:14 | 35.30931 | 24.98979 | 36967 ft | 520 kts | 92° |
| 2026-04-22 15:14 | 35.30507 | 25.07826 | 36967 ft | 519 kts | 92° |
| 2026-04-22 15:15 | 35.30078 | 25.16642 | 36965 ft | 519 kts | 92° |
| 2026-04-22 15:15 | 35.29642 | 25.25464 | 36966 ft | 519 kts | 92° |
| 2026-04-22 15:16 | 35.29201 | 25.34282 | 36972 ft | 519 kts | 92° |
| 2026-04-22 15:16 | 35.28753 | 25.43091 | 36965 ft | 518 kts | 92° |
| 2026-04-22 15:17 | 35.28301 | 25.51848 | 36963 ft | 518 kts | 92° |
| 2026-04-22 15:17 | 35.27841 | 25.60646 | 36964 ft | 518 kts | 92° |
| 2026-04-22 15:18 | 35.27373 | 25.69463 | 36968 ft | 519 kts | 92° |
| 2026-04-22 15:18 | 35.26901 | 25.78223 | 36965 ft | 519 kts | 93° |
| 2026-04-22 15:19 | 35.26421 | 25.87053 | 36964 ft | 519 kts | 93° |
| 2026-04-22 15:19 | 35.25934 | 25.95867 | 36962 ft | 519 kts | 93° |
| 2026-04-22 15:20 | 35.25440 | 26.04688 | 36975 ft | 519 kts | 93° |
| 2026-04-22 15:20 | 35.24941 | 26.13500 | 36960 ft | 519 kts | 93° |
| 2026-04-22 15:21 | 35.24435 | 26.22316 | 36951 ft | 519 kts | 93° |
| 2026-04-22 15:21 | 35.23922 | 26.31130 | 36947 ft | 519 kts | 93° |
| 2026-04-22 15:22 | 35.23407 | 26.39879 | 36953 ft | 519 kts | 93° |
| 2026-04-22 15:22 | 35.22883 | 26.48675 | 36955 ft | 519 kts | 93° |
| 2026-04-22 15:23 | 35.22352 | 26.57479 | 36952 ft | 519 kts | 94° |
| 2026-04-22 15:23 | 35.21814 | 26.66287 | 36950 ft | 519 kts | 94° |
| 2026-04-22 15:24 | 35.21269 | 26.75102 | 36952 ft | 519 kts | 94° |
| 2026-04-22 15:24 | 35.20718 | 26.83912 | 36956 ft | 519 kts | 94° |
| 2026-04-22 15:25 | 35.20164 | 26.92674 | 36951 ft | 519 kts | 94° |
| 2026-04-22 15:25 | 35.19602 | 27.01462 | 36953 ft | 519 kts | 94° |
| 2026-04-22 15:26 | 35.19033 | 27.10262 | 36955 ft | 519 kts | 94° |
| 2026-04-22 15:26 | 35.18456 | 27.19067 | 36941 ft | 519 kts | 94° |
| 2026-04-22 15:27 | 35.17874 | 27.27859 | 36954 ft | 518 kts | 94° |
| 2026-04-22 15:27 | 35.17290 | 27.36588 | 36957 ft | 518 kts | 94° |
| 2026-04-22 15:28 | 35.16695 | 27.45378 | 36954 ft | 518 kts | 94° |
| 2026-04-22 15:28 | 35.16095 | 27.54160 | 36957 ft | 518 kts | 94° |
| 2026-04-22 15:29 | 35.15487 | 27.62949 | 36958 ft | 518 kts | 94° |
| 2026-04-22 15:30 | 35.14565 | 27.76122 | 36962 ft | 518 kts | 94° |
| 2026-04-22 15:30 | 35.13943 | 27.84891 | 36965 ft | 518 kts | 94° |
| 2026-04-22 15:31 | 35.13314 | 27.93659 | 36963 ft | 518 kts | 94° |
| 2026-04-22 15:31 | 35.12683 | 28.02379 | 36962 ft | 518 kts | 95° |
| 2026-04-22 15:32 | 35.12042 | 28.11143 | 36967 ft | 518 kts | 95° |
| 2026-04-22 15:32 | 35.11394 | 28.19918 | 36970 ft | 518 kts | 95° |
| 2026-04-22 15:33 | 35.10740 | 28.28678 | 36969 ft | 518 kts | 95° |
| 2026-04-22 15:33 | 35.10080 | 28.37444 | 36968 ft | 518 kts | 95° |
| 2026-04-22 15:34 | 35.09413 | 28.46203 | 36967 ft | 518 kts | 95° |
| 2026-04-22 15:34 | 35.08741 | 28.54958 | 36970 ft | 518 kts | 95° |
| 2026-04-22 15:35 | 35.08178 | 28.62228 | 36979 ft | 518 kts | 95° |
| 2026-04-22 15:35 | 35.07382 | 28.72408 | 36963 ft | 518 kts | 95° |
| 2026-04-22 15:36 | 35.06691 | 28.81152 | 36975 ft | 517 kts | 95° |
| 2026-04-22 15:36 | 35.05993 | 28.89894 | 36970 ft | 517 kts | 95° |
| 2026-04-22 15:37 | 35.05290 | 28.98638 | 36975 ft | 517 kts | 95° |
| 2026-04-22 15:37 | 35.04580 | 29.07382 | 36976 ft | 517 kts | 95° |
| 2026-04-22 15:38 | 35.03864 | 29.16128 | 36974 ft | 517 kts | 95° |
| 2026-04-22 15:38 | 35.02783 | 29.29180 | 36977 ft | 517 kts | 95° |
| 2026-04-22 15:39 | 35.02051 | 29.37914 | 36975 ft | 517 kts | 95° |
| 2026-04-22 15:39 | 35.01313 | 29.46650 | 36974 ft | 517 kts | 96° |
| 2026-04-22 15:40 | 35.00570 | 29.55374 | 36962 ft | 517 kts | 96° |
| 2026-04-22 15:40 | 34.99821 | 29.64096 | 36975 ft | 517 kts | 96° |
| 2026-04-22 15:41 | 34.99065 | 29.72812 | 36975 ft | 517 kts | 96° |
| 2026-04-22 15:41 | 34.98308 | 29.81480 | 36975 ft | 517 kts | 96° |
| 2026-04-22 15:42 | 34.97539 | 29.90205 | 36980 ft | 517 kts | 96° |
| 2026-04-22 15:42 | 34.96794 | 29.98933 | 36975 ft | 517 kts | 92° |
| 2026-04-22 15:43 | 34.96569 | 30.07688 | 36969 ft | 517 kts | 90° |
| 2026-04-22 15:43 | 34.96455 | 30.16404 | 36974 ft | 517 kts | 90° |
| 2026-04-22 15:44 | 34.96360 | 30.25160 | 36970 ft | 516 kts | 90° |
| 2026-04-22 15:44 | 34.96252 | 30.33934 | 36970 ft | 516 kts | 90° |
| 2026-04-22 15:45 | 34.96131 | 30.42697 | 36970 ft | 516 kts | 90° |
| 2026-04-22 15:45 | 34.96002 | 30.51403 | 36977 ft | 516 kts | 90° |
| 2026-04-22 15:46 | 34.95866 | 30.60169 | 36974 ft | 516 kts | 90° |
| 2026-04-22 15:46 | 34.95723 | 30.68932 | 36974 ft | 516 kts | 90° |
| 2026-04-22 15:47 | 34.95575 | 30.77689 | 36982 ft | 516 kts | 90° |
| 2026-04-22 15:47 | 34.95420 | 30.86449 | 36966 ft | 516 kts | 90° |
| 2026-04-22 15:48 | 34.95261 | 30.95149 | 36973 ft | 516 kts | 91° |
| 2026-04-22 15:48 | 34.95093 | 31.03956 | 36971 ft | 516 kts | 91° |
| 2026-04-22 15:49 | 34.94920 | 31.12656 | 36977 ft | 516 kts | 91° |
| 2026-04-22 15:49 | 34.94741 | 31.21414 | 36977 ft | 516 kts | 91° |
| 2026-04-22 15:50 | 34.94555 | 31.30170 | 36973 ft | 516 kts | 91° |
| 2026-04-22 15:50 | 34.94364 | 31.38867 | 36974 ft | 516 kts | 91° |
| 2026-04-22 15:51 | 34.94165 | 31.47620 | 36969 ft | 516 kts | 91° |
| 2026-04-22 15:51 | 34.93961 | 31.56377 | 36976 ft | 516 kts | 91° |
| 2026-04-22 15:52 | 34.93750 | 31.65131 | 36975 ft | 516 kts | 91° |
| 2026-04-22 15:52 | 34.93532 | 31.73898 | 36970 ft | 516 kts | 91° |
| 2026-04-22 15:53 | 34.93309 | 31.82599 | 36973 ft | 516 kts | 91° |
| 2026-04-22 15:53 | 34.93079 | 31.91342 | 36975 ft | 517 kts | 91° |
| 2026-04-22 15:54 | 34.92843 | 32.00093 | 36977 ft | 517 kts | 91° |
| 2026-04-22 15:54 | 34.92601 | 32.08849 | 36975 ft | 517 kts | 91° |
| 2026-04-22 15:55 | 34.92425 | 32.17610 | 36986 ft | 516 kts | 90° |
| 2026-04-22 15:55 | 34.92380 | 32.26312 | 36987 ft | 516 kts | 89° |
| 2026-04-22 15:56 | 34.92344 | 32.35124 | 36989 ft | 516 kts | 90° |
| 2026-04-22 15:56 | 34.92288 | 32.43831 | 36998 ft | 516 kts | 90° |
| 2026-04-22 15:57 | 34.92229 | 32.51116 | 37001 ft | 517 kts | 90° |
| 2026-04-22 15:57 | 34.92148 | 32.59895 | 37002 ft | 517 kts | 90° |
| 2026-04-22 15:58 | 34.92062 | 32.68586 | 36999 ft | 516 kts | 90° |
| 2026-04-22 15:58 | 34.91914 | 32.77344 | 37003 ft | 516 kts | 92° |
| 2026-04-22 15:59 | 34.91507 | 32.86098 | 36998 ft | 517 kts | 93° |
| 2026-04-22 15:59 | 34.91031 | 32.94831 | 36991 ft | 516 kts | 94° |
| 2026-04-22 16:00 | 34.90570 | 33.03558 | 36999 ft | 516 kts | 93° |
| 2026-04-22 16:00 | 34.90119 | 33.12232 | 36998 ft | 516 kts | 93° |
| 2026-04-22 16:01 | 34.89645 | 33.20966 | 36998 ft | 516 kts | 94° |
| 2026-04-22 16:01 | 34.89160 | 33.29701 | 36989 ft | 516 kts | 94° |
| 2026-04-22 16:02 | 34.88670 | 33.38437 | 36988 ft | 516 kts | 94° |
| 2026-04-22 16:02 | 34.88176 | 33.47160 | 36983 ft | 516 kts | 94° |
| 2026-04-22 16:03 | 34.87676 | 33.55894 | 36988 ft | 516 kts | 94° |
| 2026-04-22 16:03 | 34.86651 | 33.64460 | 36996 ft | 515 kts | 106° |
| 2026-04-22 16:04 | 34.84611 | 33.72820 | 36990 ft | 515 kts | 109° |
| 2026-04-22 16:04 | 34.82377 | 33.81105 | 36974 ft | 514 kts | 109° |
| 2026-04-22 16:05 | 34.80117 | 33.89370 | 36982 ft | 514 kts | 109° |
| 2026-04-22 16:05 | 34.77875 | 33.97630 | 36970 ft | 514 kts | 109° |
| 2026-04-22 16:06 | 34.75649 | 34.05884 | 36972 ft | 513 kts | 109° |
| 2026-04-22 16:06 | 34.73418 | 34.14135 | 36974 ft | 513 kts | 109° |
| 2026-04-22 16:07 | 34.71189 | 34.22308 | 36968 ft | 513 kts | 109° |
| 2026-04-22 16:07 | 34.68933 | 34.30546 | 36975 ft | 513 kts | 109° |
| 2026-04-22 16:08 | 34.66672 | 34.38779 | 36980 ft | 513 kts | 110° |
| 2026-04-22 16:08 | 34.64406 | 34.47008 | 36982 ft | 513 kts | 110° |
| 2026-04-22 16:09 | 34.62139 | 34.55218 | 36980 ft | 513 kts | 110° |
| 2026-04-22 16:09 | 34.59864 | 34.63432 | 36985 ft | 513 kts | 110° |
| 2026-04-22 16:10 | 34.57587 | 34.71630 | 36986 ft | 513 kts | 110° |
| 2026-04-22 16:10 | 34.55304 | 34.79823 | 36985 ft | 512 kts | 110° |
| 2026-04-22 16:11 | 34.53033 | 34.87949 | 36985 ft | 512 kts | 110° |
| 2026-04-22 16:11 | 34.50739 | 34.96136 | 36985 ft | 512 kts | 110° |
| 2026-04-22 16:12 | 34.48441 | 35.04312 | 36985 ft | 512 kts | 110° |
| 2026-04-22 16:12 | 34.46162 | 35.12485 | 36985 ft | 512 kts | 110° |
| 2026-04-22 16:13 | 34.43896 | 35.20656 | 36988 ft | 512 kts | 110° |
| 2026-04-22 16:13 | 34.41637 | 35.28774 | 36990 ft | 512 kts | 110° |
| 2026-04-22 16:14 | 34.39357 | 35.36937 | 36990 ft | 511 kts | 110° |
| 2026-04-22 16:14 | 34.37071 | 35.45095 | 36993 ft | 511 kts | 110° |
| 2026-04-22 16:15 | 34.34780 | 35.53243 | 36990 ft | 511 kts | 110° |
| 2026-04-22 16:15 | 34.32478 | 35.61407 | 36996 ft | 511 kts | 110° |
| 2026-04-22 16:16 | 34.30398 | 35.69628 | 37005 ft | 513 kts | 101° |
| 2026-04-22 16:16 | 34.29642 | 35.78206 | 36999 ft | 513 kts | 94° |
| 2026-04-22 16:17 | 34.29239 | 35.86771 | 36915 ft | 514 kts | 93° |
| 2026-04-22 16:17 | 34.29066 | 35.91088 | 36665 ft | 514 kts | 93° |
| 2026-04-22 16:17 | 34.28891 | 35.95403 | 36233 ft | 512 kts | 93° |
| 2026-04-22 16:18 | 34.28712 | 35.99709 | 35556 ft | 513 kts | 93° |
| 2026-04-22 16:18 | 34.28556 | 36.04005 | 35013 ft | 511 kts | 92° |
| 2026-04-22 16:18 | 34.28410 | 36.08290 | 34482 ft | 508 kts | 92° |
| 2026-04-22 16:18 | 34.28264 | 36.12553 | 33869 ft | 507 kts | 92° |
| 2026-04-22 16:19 | 34.28115 | 36.16804 | 33141 ft | 506 kts | 92° |
| 2026-04-22 16:19 | 34.27964 | 36.21058 | 32370 ft | 504 kts | 92° |
| 2026-04-22 16:19 | 34.27812 | 36.25271 | 31266 ft | 498 kts | 92° |
| 2026-04-22 16:19 | 34.27660 | 36.29449 | 29801 ft | 496 kts | 93° |
| 2026-04-22 16:20 | 34.27507 | 36.33601 | 28325 ft | 492 kts | 93° |
| 2026-04-22 16:20 | 34.27357 | 36.37647 | 27039 ft | 484 kts | 93° |
| 2026-04-22 16:20 | 34.27206 | 36.41670 | 25858 ft | 474 kts | 93° |
| 2026-04-22 16:20 | 34.26988 | 36.45609 | 24685 ft | 465 kts | 98° |
| 2026-04-22 16:21 | 34.26173 | 36.49339 | 23559 ft | 454 kts | 114° |
| 2026-04-22 16:21 | 34.24520 | 36.52533 | 22638 ft | 446 kts | 134° |
| 2026-04-22 16:21 | 34.22200 | 36.54981 | 22211 ft | 442 kts | 150° |
| 2026-04-22 16:21 | 34.19445 | 36.56515 | 21720 ft | 430 kts | 167° |
| 2026-04-22 16:22 | 34.13645 | 36.56818 | 20752 ft | 414 kts | 188° |
| 2026-04-22 16:22 | 34.10787 | 36.56455 | 20269 ft | 412 kts | 189° |
| 2026-04-22 16:22 | 34.07946 | 36.56079 | 19802 ft | 409 kts | 189° |
| 2026-04-22 16:23 | 34.02305 | 36.55358 | 18864 ft | 405 kts | 189° |
| 2026-04-22 16:23 | 33.99508 | 36.55009 | 18396 ft | 402 kts | 189° |
| 2026-04-22 16:23 | 33.96764 | 36.54671 | 17890 ft | 400 kts | 189° |
| 2026-04-22 16:24 | 33.94006 | 36.54333 | 17428 ft | 397 kts | 189° |
| 2026-04-22 16:24 | 33.88548 | 36.53667 | 16209 ft | 389 kts | 188° |
| 2026-04-22 16:24 | 33.85868 | 36.53341 | 15631 ft | 384 kts | 189° |
| 2026-04-22 16:25 | 33.83227 | 36.52992 | 15011 ft | 379 kts | 189° |
| 2026-04-22 16:25 | 33.78023 | 36.52280 | 13762 ft | 373 kts | 189° |
| 2026-04-22 16:25 | 33.75457 | 36.51928 | 13068 ft | 370 kts | 189° |
| 2026-04-22 16:26 | 33.72903 | 36.51578 | 12399 ft | 367 kts | 188° |
| 2026-04-22 16:26 | 33.70380 | 36.51234 | 11760 ft | 363 kts | 188° |
| 2026-04-22 16:26 | 33.67913 | 36.50898 | 11122 ft | 360 kts | 188° |
| 2026-04-22 16:26 | 33.65444 | 36.50562 | 10702 ft | 351 kts | 188° |
| 2026-04-22 16:27 | 33.63092 | 36.50265 | 10408 ft | 328 kts | 185° |
| 2026-04-22 16:27 | 33.60910 | 36.50617 | 10040 ft | 309 kts | 161° |
| 2026-04-22 16:27 | 33.59117 | 36.51925 | 9515 ft | 299 kts | 138° |
| 2026-04-22 16:27 | 33.57956 | 36.53961 | 8839 ft | 296 kts | 112° |
| 2026-04-22 16:28 | 33.57619 | 36.56373 | 8124 ft | 294 kts | 87° |
| 2026-04-22 16:28 | 33.58101 | 36.58733 | 7434 ft | 291 kts | 69° |
| 2026-04-22 16:28 | 33.58901 | 36.60923 | 6736 ft | 290 kts | 66° |
| 2026-04-22 16:28 | 33.59756 | 36.63126 | 5874 ft | 293 kts | 69° |
| 2026-04-22 16:29 | 33.60152 | 36.65510 | 4979 ft | 291 kts | 94° |
| 2026-04-22 16:29 | 33.59663 | 36.67831 | 4158 ft | 285 kts | 120° |
| 2026-04-22 16:29 | 33.58525 | 36.69701 | 3636 ft | 270 kts | 133° |
| 2026-04-22 16:29 | 33.57275 | 36.71240 | 3465 ft | 244 kts | 141° |
| 2026-04-22 16:30 | 33.56394 | 36.72003 | 3469 ft | 228 kts | 150° |
| 2026-04-22 16:30 | 33.54524 | 36.72824 | 3465 ft | 203 kts | 173° |
| 2026-04-22 16:30 | 33.53202 | 36.72769 | 3461 ft | 185 kts | 192° |
| 2026-04-22 16:30 | 33.52040 | 36.72219 | 3468 ft | 176 kts | 213° |
| 2026-04-22 16:31 | 33.51250 | 36.71162 | 3472 ft | 172 kts | 249° |
| 2026-04-22 16:31 | 33.51222 | 36.69722 | 3467 ft | 176 kts | 280° |
| 2026-04-22 16:31 | 33.51566 | 36.68311 | 3470 ft | 176 kts | 285° |
| 2026-04-22 16:31 | 33.51959 | 36.66941 | 3467 ft | 175 kts | 286° |
| 2026-04-22 16:32 | 33.52049 | 36.65561 | 3459 ft | 164 kts | 253° |
| 2026-04-22 16:32 | 33.51629 | 36.64307 | 3474 ft | 161 kts | 241° |
| 2026-04-22 16:32 | 33.50995 | 36.63218 | 3459 ft | 156 kts | 229° |
| 2026-04-22 16:32 | 33.50310 | 36.62282 | 3443 ft | 142 kts | 227° |
| 2026-04-22 16:33 | 33.49645 | 36.61389 | 3473 ft | 147 kts | 227° |
| 2026-04-22 16:33 | 33.48957 | 36.60460 | 3475 ft | 148 kts | 227° |
| 2026-04-22 16:33 | 33.48309 | 36.59583 | 3416 ft | 135 kts | 228° |
| 2026-04-22 16:33 | 33.47699 | 36.58761 | 3252 ft | 130 kts | 227° |
| 2026-04-22 16:34 | 33.47103 | 36.57957 | 3078 ft | 128 kts | 227° |
| 2026-04-22 16:34 | 33.46523 | 36.57174 | 2904 ft | 127 kts | 227° |
| 2026-04-22 16:34 | 33.45941 | 36.56389 | 2746 ft | 126 kts | 228° |
| 2026-04-22 16:34 | 33.45362 | 36.55607 | 2573 ft | 125 kts | 227° |
| 2026-04-22 16:35 | 33.44782 | 36.54826 | 2393 ft | 125 kts | 226° |
| 2026-04-22 16:35 | 33.44206 | 36.54046 | 2210 ft | 125 kts | 228° |
| 2026-04-22 16:35 | 33.43629 | 36.53278 | 2052 ft | 123 kts | 226° |
| 2026-04-22 16:35 | 33.43105 | 36.52568 | 2004 ft | 98 kts | 229° |
| 2026-04-22 16:36 | 33.42717 | 36.52042 | 2005 ft | 71 kts | 229° |
| 2026-04-22 16:36 | 33.42498 | 36.51747 | 2003 ft | 39 kts | 228° |
| 2026-04-22 16:36 | 33.42333 | 36.51554 | 2005 ft | 30 kts | 207° |
| 2026-04-22 16:36 | 33.42162 | 36.51475 | 2007 ft | 21 kts | 199° |
| 2026-04-22 16:37 | 33.42046 | 36.51421 | 2005 ft | 17 kts | 208° |
| 2026-04-22 16:37 | 33.41965 | 36.51328 | 2002 ft | 16 kts | 229° |
| 2026-04-22 16:37 | 33.41903 | 36.51244 | 2002 ft | 11 kts | 223° |
| 2026-04-22 16:37 | 33.41848 | 36.51240 | 2001 ft | 5 kts | 139° |
| 2026-04-22 16:38 | 33.41813 | 36.51276 | 2003 ft | 8 kts | 138° |
| 2026-04-22 16:38 | 33.41769 | 36.51325 | 2001 ft | 9 kts | 137° |
| 2026-04-22 16:38 | 33.41716 | 36.51382 | 2001 ft | 11 kts | 139° |
| 2026-04-22 16:38 | 33.41647 | 36.51411 | 2003 ft | 10 kts | 186° |
| 2026-04-22 16:39 | 33.41579 | 36.51403 | 2003 ft | 10 kts | 183° |
| 2026-04-22 16:39 | 33.41506 | 36.51398 | 2001 ft | 11 kts | 183° |
| 2026-04-22 16:39 | 33.41426 | 36.51392 | 2000 ft | 12 kts | 183° |
| 2026-04-22 16:39 | 33.41351 | 36.51367 | 2002 ft | 10 kts | 227° |
| 2026-04-22 16:40 | 33.41315 | 36.51316 | 1999 ft | 0 kts | 229° |